Terminal Aerodrome Forecast
Issued by NWS Buffalo, NY

Home | Current Version | Previous Version | Text Only | Print | Product List | Glossary On
Versions: 1 2 3 4 5 6 7 8 9 10 11 12 13 14 15 16 17 18 19 20 21 22 23 24 25
000
FTUS41 KBUF 211300 AAA
TAFBUF
TAF AMD
KBUF 211341Z 2114/2212 23011KT P6SM SCT014 BKN020
     FM211500 24011KT P6SM VCSH BKN050
     FM212100 25010KT P6SM BKN070
     FM220300 VRB03KT 6SM BR SCT015 BKN250
     FM220600 VRB03KT 3SM BR BKN015=

USA.gov is the U.S. government's official web portal to all federal, state and local government web resources and services.